createdAt,value
2023-05-19T00:04:02.597Z,3.30
2023-05-19T00:09:08.350Z,2.80
2023-05-19T00:14:12.097Z,2.90
2023-05-19T00:19:17.081Z,3.10
2023-05-19T00:24:19.910Z,3.00
2023-05-19T00:29:22.699Z,2.70
2023-05-19T00:34:25.626Z,2.40
2023-05-19T00:39:28.360Z,2.90
2023-05-19T00:44:31.486Z,3.10
2023-05-19T00:49:35.897Z,2.70
2023-05-19T00:54:38.695Z,2.60
2023-05-19T00:59:41.486Z,2.70
2023-05-19T01:04:45.108Z,2.60
2023-05-19T01:09:47.873Z,2.60
2023-05-19T01:14:51.201Z,2.10
2023-05-19T01:25:29.905Z,2.10
2023-05-19T01:30:40.879Z,2.30
2023-05-19T01:35:44.215Z,2.50
2023-05-19T01:40:49.622Z,2.70
2023-05-19T01:45:53.403Z,2.40
2023-05-19T01:50:57.414Z,2.10
2023-05-19T01:56:00.523Z,2.10
2023-05-19T02:06:40.848Z,2.40
2023-05-19T02:11:54.824Z,3.00
2023-05-19T02:16:59.351Z,2.40
2023-05-19T02:22:02.136Z,2.40
2023-05-19T02:27:05.387Z,2.60
2023-05-19T02:37:15.536Z,2.50
2023-05-19T02:42:18.395Z,2.20
2023-05-19T02:47:21.234Z,3.00
2023-05-19T02:52:23.968Z,2.90
2023-05-19T02:57:29.551Z,3.30
2023-05-19T03:02:34.254Z,2.80
2023-05-19T03:07:37.376Z,3.30
2023-05-19T03:12:40.069Z,3.00
2023-05-19T03:17:42.934Z,2.80
2023-05-19T03:22:45.883Z,3.20
2023-05-19T03:27:48.647Z,2.50
2023-05-19T03:32:52.268Z,2.40
2023-05-19T03:37:55.313Z,2.70
2023-05-19T03:42:58.133Z,3.00
2023-05-19T03:48:01.071Z,2.80
2023-05-19T03:53:03.872Z,3.00
2023-05-19T03:58:06.691Z,2.70
2023-05-19T04:03:09.604Z,2.90
2023-05-19T04:13:15.328Z,2.40
2023-05-19T04:18:18.129Z,2.10
2023-05-19T04:23:20.832Z,2.40
2023-05-19T04:28:24.077Z,2.10
2023-05-19T04:33:29.332Z,2.50
2023-05-19T04:38:32.057Z,6.10
2023-05-19T04:43:34.803Z,2.80
2023-05-19T04:48:42.815Z,1.90
2023-05-19T04:53:45.937Z,2.40
2023-05-19T04:58:49.474Z,2.10
2023-05-19T05:03:55.428Z,2.20
2023-05-19T05:09:00.129Z,2.50
2023-05-19T05:14:03.180Z,2.10
2023-05-19T05:19:06.227Z,2.40
2023-05-19T05:29:12.370Z,1.90
2023-05-19T05:34:15.472Z,2.30
2023-05-19T05:44:20.937Z,2.30
2023-05-19T05:49:24.076Z,2.10
2023-05-19T05:54:26.999Z,2.50
2023-05-19T05:59:29.794Z,2.50
2023-05-19T06:04:32.955Z,2.50
2023-05-19T06:09:37.605Z,2.20
2023-05-19T06:14:40.565Z,2.00
2023-05-19T06:29:49.275Z,2.20
2023-05-19T06:34:54.770Z,2.50
2023-05-19T06:39:59.034Z,2.60
2023-05-19T06:45:03.276Z,2.60
2023-05-19T06:50:07.571Z,5.50
2023-05-19T06:55:11.987Z,4.20
2023-05-19T07:00:18.835Z,2.60
2023-05-19T07:05:23.720Z,2.60
2023-05-19T07:10:26.623Z,6.40
2023-05-19T07:15:30.408Z,5.00
2023-05-19T07:20:34.417Z,5.10
2023-05-19T07:25:37.298Z,5.50
2023-05-19T07:30:40.121Z,3.40
2023-05-19T07:35:43.094Z,2.70
2023-05-19T07:40:46.291Z,2.50
2023-05-19T07:45:49.316Z,2.70
2023-05-19T07:50:53.086Z,3.10
2023-05-19T07:55:58.356Z,2.60
2023-05-19T08:01:01.722Z,2.90
2023-05-19T08:06:04.802Z,2.60
2023-05-19T08:11:07.729Z,2.50
2023-05-19T08:16:10.804Z,2.90
2023-05-19T08:21:13.666Z,1.90
2023-05-19T08:26:20.104Z,2.50
2023-05-19T08:31:23.507Z,2.60
2023-05-19T08:36:26.412Z,2.10
2023-05-19T08:41:29.188Z,2.20
2023-05-19T08:46:32.310Z,3.00
2023-05-19T08:51:48.512Z,2.40
2023-05-19T08:56:51.629Z,3.50
2023-05-19T09:01:55.670Z,2.80
2023-05-19T09:07:02.934Z,2.40
2023-05-19T09:12:06.109Z,2.50
2023-05-19T09:17:09.857Z,2.20
2023-05-19T09:22:16.162Z,2.30
2023-05-19T09:27:25.215Z,1.80
2023-05-19T09:32:28.170Z,1.80
2023-05-19T09:37:32.466Z,1.90
2023-05-19T09:42:39.221Z,1.80
2023-05-19T09:47:42.844Z,2.20
2023-05-19T09:52:45.746Z,2.50
2023-05-19T09:57:48.649Z,2.30
2023-05-19T10:02:51.639Z,2.50
2023-05-19T10:07:55.376Z,2.70
2023-05-19T10:12:59.208Z,2.30
2023-05-19T10:18:03.236Z,1.90
2023-05-19T10:23:06.166Z,1.90
2023-05-19T10:28:13.959Z,2.20
2023-05-19T10:33:29.029Z,2.20
2023-05-19T10:38:59.176Z,2.40
2023-05-19T10:44:41.173Z,2.10
2023-05-19T10:49:45.596Z,2.50
2023-05-19T10:54:48.697Z,4.20
2023-05-19T10:59:51.670Z,2.50
2023-05-19T11:04:58.447Z,2.30
2023-05-19T11:10:07.092Z,2.20
2023-05-19T11:15:14.886Z,2.10
2023-05-19T11:20:28.555Z,2.20
2023-05-19T11:25:48.433Z,2.30
2023-05-19T11:30:53.871Z,3.10
2023-05-19T11:36:00.072Z,4.70
2023-05-19T11:41:03.926Z,2.90
2023-05-19T11:46:07.835Z,2.90
2023-05-19T11:51:10.655Z,3.40
2023-05-19T11:56:15.221Z,4.30
2023-05-19T12:01:18.000Z,3.00
2023-05-19T12:06:20.914Z,2.80
2023-05-19T12:11:24.277Z,4.00
2023-05-19T12:16:36.330Z,3.40
2023-05-19T12:21:39.529Z,3.00
2023-05-19T12:26:42.452Z,2.20
2023-05-19T12:36:49.847Z,3.60
2023-05-19T12:41:52.597Z,4.20
2023-05-19T12:46:57.606Z,3.30
2023-05-19T12:52:12.902Z,6.10
2023-05-19T12:57:27.870Z,2.80
2023-05-19T13:02:30.983Z,4.50
2023-05-19T13:07:35.758Z,3.20
2023-05-19T13:12:38.870Z,4.70
2023-05-19T13:17:41.636Z,5.00
2023-05-19T13:27:48.370Z,2.60
2023-05-19T13:32:52.724Z,2.00
2023-05-19T13:37:55.607Z,3.10
2023-05-19T13:48:01.429Z,2.30
2023-05-19T13:53:04.513Z,2.20
2023-05-19T14:03:10.693Z,2.50
2023-05-19T14:08:13.544Z,2.10
2023-05-19T14:13:31.470Z,3.40
2023-05-19T14:18:37.181Z,2.90
2023-05-19T14:23:40.073Z,2.30
2023-05-19T14:28:42.844Z,3.60
2023-05-19T14:33:45.680Z,5.50
2023-05-19T14:38:48.526Z,4.50
2023-05-19T14:43:51.543Z,3.00
2023-05-19T14:48:54.379Z,5.30
2023-05-19T14:53:57.228Z,3.80
2023-05-19T15:04:02.756Z,3.70
2023-05-19T15:09:05.548Z,3.00
2023-05-19T15:19:10.952Z,4.20
2023-05-19T15:24:13.713Z,4.10
2023-05-19T15:29:16.483Z,3.20
2023-05-19T15:34:20.411Z,4.50
2023-05-19T15:39:23.172Z,4.50
2023-05-19T15:49:31.719Z,5.60
2023-05-19T15:54:34.479Z,2.60
2023-05-19T15:59:37.234Z,3.60
2023-05-19T16:04:39.943Z,3.30
2023-05-19T16:09:42.964Z,2.90
2023-05-19T16:19:48.608Z,2.30
2023-05-19T16:24:52.494Z,3.00
2023-05-19T16:29:55.585Z,4.00
2023-05-19T16:34:58.357Z,3.60
2023-05-19T16:40:01.202Z,5.60
2023-05-19T16:50:07.736Z,2.90
2023-05-19T16:55:11.197Z,3.80
2023-05-19T17:00:14.965Z,46.30
2023-05-19T17:05:17.919Z,22.30
2023-05-19T17:10:21.207Z,15.60
2023-05-19T17:15:24.205Z,26.20
2023-05-19T17:25:29.640Z,13.70
2023-05-19T17:30:32.999Z,26.40
2023-05-19T17:35:35.944Z,18.30
2023-05-19T17:40:40.086Z,45.60
2023-05-19T17:45:44.786Z,14.10
2023-05-19T17:50:48.163Z,17.40
2023-05-19T17:55:52.878Z,25.40
2023-05-19T18:00:56.087Z,29.20
2023-05-19T18:05:59.027Z,19.90
2023-05-19T18:16:05.546Z,14.50
2023-05-19T18:21:14.124Z,6.50
2023-05-19T18:26:16.902Z,7.20
2023-05-19T18:31:20.426Z,19.10
2023-05-19T18:36:23.615Z,11.30
2023-05-19T18:41:26.536Z,10.80
2023-05-19T18:46:30.096Z,8.50
2023-05-19T18:51:36.182Z,15.20
2023-05-19T18:56:39.172Z,8.00
2023-05-19T19:06:47.886Z,11.70
2023-05-19T19:11:50.674Z,6.10
2023-05-19T19:16:53.508Z,4.70
2023-05-19T19:21:56.433Z,3.40
2023-05-19T19:26:59.165Z,5.90
2023-05-19T19:32:02.183Z,5.50
2023-05-19T19:42:07.733Z,5.30
2023-05-19T19:47:10.487Z,5.30
2023-05-19T19:52:13.251Z,5.70
2023-05-19T19:57:17.410Z,8.60
2023-05-19T20:02:20.255Z,5.70
2023-05-19T20:07:23.404Z,5.20
2023-05-19T20:12:26.602Z,3.90
2023-05-19T20:17:29.406Z,4.60
2023-05-19T20:22:32.258Z,3.40
2023-05-19T20:27:35.056Z,2.90
2023-05-19T20:32:37.880Z,2.90
2023-05-19T20:37:41.047Z,3.00
2023-05-19T20:47:46.778Z,2.80
2023-05-19T20:57:52.329Z,3.30
2023-05-19T21:02:55.146Z,4.00
2023-05-19T21:07:57.940Z,3.50
2023-05-19T21:13:00.832Z,3.80
2023-05-19T21:18:03.729Z,4.20
2023-05-19T21:28:09.382Z,3.70
2023-05-19T21:33:12.324Z,3.90
2023-05-19T21:38:23.508Z,4.30
2023-05-19T21:43:27.290Z,4.30
2023-05-19T21:48:30.067Z,4.70
2023-05-19T21:53:32.969Z,4.20
2023-05-19T21:58:36.035Z,4.00
2023-05-19T22:08:41.897Z,4.40
2023-05-19T22:13:44.695Z,3.40
2023-05-19T22:18:47.499Z,4.00
2023-05-19T22:23:52.139Z,6.20
2023-05-19T22:28:55.568Z,4.50
2023-05-19T22:33:58.315Z,4.30
2023-05-19T22:39:01.112Z,3.80
2023-05-19T22:44:03.928Z,4.20
2023-05-19T22:49:06.708Z,4.60
2023-05-19T22:54:10.511Z,4.10
2023-05-19T22:59:13.281Z,3.80
2023-05-19T23:04:16.060Z,3.70
2023-05-19T23:09:19.134Z,3.60
2023-05-19T23:14:22.117Z,3.60
2023-05-19T23:19:24.964Z,4.30
2023-05-19T23:29:30.498Z,3.60
2023-05-19T23:34:33.360Z,3.60
2023-05-19T23:39:38.281Z,3.70
2023-05-19T23:44:41.302Z,3.40
2023-05-19T23:54:46.692Z,3.10
2023-05-19T23:59:49.447Z,3.50
